createdAt,value
2023-03-19T00:00:25.899Z,100967.75
2023-03-19T00:02:29.521Z,100966.97
2023-03-19T00:04:33.391Z,100953.88
2023-03-19T00:06:37.048Z,100947.84
2023-03-19T00:08:40.629Z,100952.34
2023-03-19T00:10:43.982Z,100954.19
2023-03-19T00:12:48.910Z,100963.03
2023-03-19T00:14:52.241Z,100971.91
2023-03-19T00:16:55.576Z,100984.22
2023-03-19T00:18:58.915Z,100980.81
2023-03-19T00:21:02.588Z,100984.34
2023-03-19T00:23:06.496Z,100989.66
2023-03-19T00:25:11.112Z,100993.13
2023-03-19T00:27:14.545Z,100987.88
2023-03-19T00:29:19.385Z,100987.94
2023-03-19T00:31:24.478Z,100987.16
2023-03-19T00:33:27.795Z,100998.50
2023-03-19T00:35:31.770Z,100999.38
2023-03-19T00:37:35.724Z,101004.63
2023-03-19T00:39:39.187Z,100996.78
2023-03-19T00:41:42.626Z,100999.41
2023-03-19T00:43:46.421Z,100991.53
2023-03-19T00:45:51.188Z,100988.88
2023-03-19T00:47:54.498Z,100979.28
2023-03-19T00:49:57.917Z,100981.03
2023-03-19T00:52:01.526Z,100979.28
2023-03-19T00:54:05.363Z,100976.72
2023-03-19T00:56:09.511Z,100972.38
2023-03-19T00:58:12.739Z,100982.03
2023-03-19T01:02:21.151Z,100990.81
2023-03-19T01:04:24.639Z,100998.69
2023-03-19T01:06:27.994Z,101004.09
2023-03-19T01:08:31.309Z,101000.56
2023-03-19T01:10:35.887Z,101011.16
2023-03-19T01:12:41.635Z,101008.59
2023-03-19T01:14:44.881Z,100998.97
2023-03-19T01:16:48.352Z,100996.41
2023-03-19T01:18:53.512Z,100995.56
2023-03-19T01:20:56.982Z,100993.84
2023-03-19T01:23:01.644Z,100995.66
2023-03-19T01:25:05.898Z,101010.59
2023-03-19T01:27:10.038Z,101015.00
2023-03-19T01:29:13.682Z,101011.47
2023-03-19T01:31:17.349Z,101020.31
2023-03-19T01:33:29.685Z,101029.94
2023-03-19T01:35:39.816Z,101025.56
2023-03-19T01:37:43.975Z,101026.50
2023-03-19T01:39:48.116Z,101037.91
2023-03-19T01:41:51.987Z,101034.53
2023-03-19T01:44:27.925Z,101046.88
2023-03-19T01:46:51.431Z,101040.81
2023-03-19T01:49:31.901Z,101046.94
2023-03-19T01:51:50.785Z,101045.22
2023-03-19T01:54:18.114Z,101037.28
2023-03-19T01:56:33.387Z,101036.31
2023-03-19T01:59:07.932Z,101024.03
2023-03-19T02:01:54.935Z,101017.94
2023-03-19T02:04:00.119Z,101027.53
2023-03-19T02:06:07.809Z,101023.13
2023-03-19T02:08:15.865Z,101029.28
2023-03-19T02:10:20.962Z,101035.44
2023-03-19T02:12:24.251Z,101034.59
2023-03-19T02:14:27.737Z,101032.03
2023-03-19T02:16:31.959Z,101030.31
2023-03-19T02:18:36.320Z,101033.84
2023-03-19T02:20:50.016Z,101038.31
2023-03-19T02:23:00.287Z,101043.63
2023-03-19T02:25:12.541Z,101041.06
2023-03-19T02:27:19.484Z,101043.69
2023-03-19T02:29:25.752Z,101044.66
2023-03-19T02:31:29.601Z,101052.53
2023-03-19T02:33:33.399Z,101053.38
2023-03-19T02:35:38.507Z,101052.53
2023-03-19T02:37:41.991Z,101042.03
2023-03-19T02:39:53.073Z,101050.81
2023-03-19T02:41:58.283Z,101050.00
2023-03-19T02:44:06.693Z,101045.66
2023-03-19T02:46:12.952Z,101048.34
2023-03-19T02:48:17.769Z,101046.63
2023-03-19T02:50:21.014Z,101046.56
2023-03-19T02:52:25.261Z,101049.13
2023-03-19T02:54:28.802Z,101042.97
2023-03-19T02:56:32.730Z,101031.53
2023-03-19T02:58:36.170Z,101034.94
2023-03-19T03:00:42.569Z,101034.94
2023-03-19T03:02:46.198Z,101034.94
2023-03-19T03:04:49.599Z,101041.91
2023-03-19T03:06:53.081Z,101047.16
2023-03-19T03:08:56.633Z,101044.47
2023-03-19T03:11:01.992Z,101054.06
2023-03-19T03:13:05.671Z,101057.53
2023-03-19T03:15:10.046Z,101052.28
2023-03-19T03:17:15.533Z,101052.34
2023-03-19T03:19:19.543Z,101049.72
2023-03-19T03:21:24.442Z,101041.06
2023-03-19T03:23:27.794Z,101050.69
2023-03-19T03:25:31.183Z,101048.13
2023-03-19T03:27:35.020Z,101046.38
2023-03-19T03:29:38.331Z,101049.00
2023-03-19T03:31:41.705Z,101045.56
2023-03-19T03:33:47.128Z,101058.66
2023-03-19T03:35:51.177Z,101062.19
2023-03-19T03:37:54.486Z,101064.81
2023-03-19T03:39:58.210Z,101060.53
2023-03-19T03:42:01.509Z,101059.69
2023-03-19T03:44:07.122Z,101058.84
2023-03-19T03:46:12.556Z,101051.03
2023-03-19T03:48:16.344Z,101055.41
2023-03-19T03:50:21.112Z,101051.94
2023-03-19T03:52:31.353Z,101061.63
2023-03-19T03:54:35.475Z,101066.09
2023-03-19T03:56:39.009Z,101065.16
2023-03-19T03:58:42.319Z,101063.41
2023-03-19T04:00:46.259Z,101071.28
2023-03-19T04:02:49.668Z,101066.03
2023-03-19T04:04:53.533Z,101060.78
2023-03-19T04:06:58.137Z,101069.56
2023-03-19T04:09:09.450Z,101069.56
2023-03-19T04:11:13.278Z,101074.84
2023-03-19T04:13:16.577Z,101075.75
2023-03-19T04:15:20.457Z,101067.09
2023-03-19T04:17:24.927Z,101074.09
2023-03-19T04:19:28.494Z,101073.25
2023-03-19T04:21:31.969Z,101079.41
2023-03-19T04:23:36.748Z,101085.56
2023-03-19T04:25:41.615Z,101080.34
2023-03-19T04:27:45.322Z,101074.25
2023-03-19T04:29:48.706Z,101074.25
2023-03-19T04:31:52.924Z,101069.91
2023-03-19T04:33:56.217Z,101063.88
2023-03-19T04:36:00.589Z,101061.31
2023-03-19T04:38:04.214Z,101063.13
2023-03-19T04:40:11.123Z,101077.16
2023-03-19T04:42:15.519Z,101076.28
2023-03-19T04:44:28.505Z,101084.16
2023-03-19T04:46:32.248Z,101093.75
2023-03-19T04:48:36.577Z,101085.91
2023-03-19T04:50:41.067Z,101079.72
2023-03-19T04:52:44.296Z,101071.84
2023-03-19T04:54:48.896Z,101086.72
2023-03-19T04:56:54.255Z,101084.94
2023-03-19T04:58:59.830Z,101087.44
2023-03-19T05:01:03.926Z,101088.28
2023-03-19T05:03:30.075Z,101088.28
2023-03-19T05:05:33.476Z,101083.88
2023-03-19T05:07:42.457Z,101084.69
2023-03-19T05:09:47.935Z,101086.44
2023-03-19T05:11:53.822Z,101102.22
2023-03-19T05:13:58.926Z,101108.31
2023-03-19T05:16:09.513Z,101091.78
2023-03-19T05:18:13.647Z,101086.53
2023-03-19T05:20:20.673Z,101088.34
2023-03-19T05:22:39.870Z,101098.84
2023-03-19T05:24:43.938Z,101101.56
2023-03-19T05:26:47.618Z,101097.28
2023-03-19T05:29:14.063Z,101094.72
2023-03-19T05:31:30.356Z,101100.81
2023-03-19T05:33:33.966Z,101107.91
2023-03-19T05:35:39.328Z,101109.63
2023-03-19T05:37:50.120Z,101105.28
2023-03-19T05:39:53.671Z,101100.81
2023-03-19T05:41:56.943Z,101110.47
2023-03-19T05:44:05.114Z,101113.13
2023-03-19T05:46:39.157Z,101109.63
2023-03-19T05:48:42.853Z,101112.25
2023-03-19T05:50:46.622Z,101114.03
2023-03-19T05:52:55.709Z,101114.94
2023-03-19T05:54:59.024Z,101115.81
2023-03-19T05:57:28.427Z,101116.66
2023-03-19T05:59:52.283Z,101115.81
2023-03-19T06:02:12.241Z,101120.19
2023-03-19T06:04:16.707Z,101119.34
2023-03-19T06:06:20.472Z,101121.09
2023-03-19T06:08:27.965Z,101122.88
2023-03-19T06:10:53.781Z,101131.63
2023-03-19T06:12:57.128Z,101133.41
2023-03-19T06:15:14.806Z,101138.66
2023-03-19T06:17:22.500Z,101141.28
2023-03-19T06:19:26.208Z,101143.06
2023-03-19T06:21:31.628Z,101148.34
2023-03-19T06:23:38.386Z,101144.00
2023-03-19T06:25:43.249Z,101144.91
2023-03-19T06:27:47.515Z,101143.13
2023-03-19T06:30:02.249Z,101154.53
2023-03-19T06:32:09.912Z,101154.53
2023-03-19T06:34:17.611Z,101157.13
2023-03-19T06:36:21.209Z,101152.72
2023-03-19T06:38:25.142Z,101158.81
2023-03-19T06:40:28.394Z,101151.78
2023-03-19T06:42:31.829Z,101152.56
2023-03-19T06:44:35.490Z,101154.28
2023-03-19T06:46:38.764Z,101158.63
2023-03-19T06:48:42.171Z,101160.31
2023-03-19T06:50:47.613Z,101171.59
2023-03-19T06:52:51.060Z,101175.03
2023-03-19T06:54:54.384Z,101169.63
2023-03-19T06:56:57.694Z,101164.28
2023-03-19T06:59:01.062Z,101171.94
2023-03-19T07:01:04.432Z,101171.75
2023-03-19T07:03:07.767Z,101167.19
2023-03-19T07:05:11.260Z,101171.38
2023-03-19T07:07:16.134Z,101181.63
2023-03-19T07:09:19.448Z,101180.53
2023-03-19T07:11:22.648Z,101183.03
2023-03-19T07:13:25.954Z,101186.38
2023-03-19T07:15:29.160Z,101191.50
2023-03-19T07:17:32.500Z,101191.38
2023-03-19T07:19:35.904Z,101187.69
2023-03-19T07:21:39.189Z,101189.22
2023-03-19T07:23:44.067Z,101189.03
2023-03-19T07:25:47.838Z,101193.31
2023-03-19T07:27:51.080Z,101201.09
2023-03-19T07:29:55.719Z,101188.69
2023-03-19T07:31:59.182Z,101197.19
2023-03-19T07:34:02.973Z,101190.13
2023-03-19T07:36:07.306Z,101193.38
2023-03-19T07:38:10.551Z,101192.31
2023-03-19T07:40:15.398Z,101203.44
2023-03-19T07:42:18.725Z,101201.50
2023-03-19T07:44:21.946Z,101201.19
2023-03-19T07:46:25.588Z,101210.63
2023-03-19T07:48:28.935Z,101212.22
2023-03-19T07:50:32.924Z,101205.94
2023-03-19T07:52:36.846Z,101201.31
2023-03-19T07:54:40.064Z,101213.41
2023-03-19T07:56:45.314Z,101213.31
2023-03-19T07:58:48.970Z,101211.41
2023-03-19T08:00:52.612Z,101207.81
2023-03-19T08:02:55.856Z,101204.13
2023-03-19T08:05:02.169Z,101203.16
2023-03-19T08:07:06.108Z,101205.66
2023-03-19T08:09:09.952Z,101204.75
2023-03-19T08:11:13.132Z,101205.56
2023-03-19T08:13:17.824Z,101207.31
2023-03-19T08:15:21.563Z,101206.47
2023-03-19T08:17:24.980Z,101211.75
2023-03-19T08:19:28.378Z,101205.50
2023-03-19T08:21:33.808Z,101207.94
2023-03-19T08:23:37.163Z,101207.78
2023-03-19T08:25:40.622Z,101215.31
2023-03-19T08:27:44.204Z,101205.53
2023-03-19T08:29:48.861Z,101199.91
2023-03-19T08:31:52.085Z,101192.59
2023-03-19T08:33:56.043Z,101199.91
2023-03-19T08:36:07.221Z,101203.03
2023-03-19T08:38:11.253Z,101212.97
2023-03-19T08:40:15.132Z,101211.66
2023-03-19T08:42:18.726Z,101219.94
2023-03-19T08:44:22.040Z,101207.16
2023-03-19T08:46:27.790Z,101223.16
2023-03-19T08:48:31.909Z,101215.53
2023-03-19T08:50:36.153Z,101228.06
2023-03-19T08:52:40.139Z,101220.34
2023-03-19T08:54:43.894Z,101225.19
2023-03-19T08:56:47.801Z,101227.50
2023-03-19T08:58:51.209Z,101229.66
2023-03-19T09:00:54.925Z,101216.91
2023-03-19T09:02:59.578Z,101221.53
2023-03-19T09:05:03.278Z,101217.56
2023-03-19T09:07:07.333Z,101213.84
2023-03-19T09:09:10.960Z,101219.69
2023-03-19T09:11:17.270Z,101216.34
2023-03-19T09:13:21.280Z,101217.50
2023-03-19T09:15:24.890Z,101214.06
2023-03-19T09:17:28.951Z,101207.22
2023-03-19T09:19:34.526Z,101203.16
2023-03-19T09:21:38.666Z,101201.16
2023-03-19T09:23:42.673Z,101206.00
2023-03-19T09:25:46.453Z,101209.81
2023-03-19T09:27:50.365Z,101212.09
2023-03-19T09:29:54.337Z,101216.91
2023-03-19T09:31:57.855Z,101216.59
2023-03-19T09:34:01.959Z,101211.31
2023-03-19T09:36:08.872Z,101212.41
2023-03-19T09:38:12.593Z,101211.63
2023-03-19T09:40:24.098Z,101205.47
2023-03-19T09:42:50.879Z,101208.03
2023-03-19T09:44:55.345Z,101209.75
2023-03-19T09:47:03.507Z,101211.69
2023-03-19T09:49:18.187Z,101211.25
2023-03-19T09:51:32.009Z,101208.88
2023-03-19T09:53:42.406Z,101203.59
2023-03-19T09:55:49.493Z,101214.31
2023-03-19T09:57:55.769Z,101213.63
2023-03-19T10:00:00.539Z,101212.16
2023-03-19T10:02:25.726Z,101212.41
2023-03-19T10:04:45.370Z,101211.84
2023-03-19T10:06:55.768Z,101205.09
2023-03-19T10:09:13.846Z,101199.06
2023-03-19T10:11:33.745Z,101211.88
2023-03-19T10:13:51.286Z,101218.03
2023-03-19T10:15:56.999Z,101215.22
2023-03-19T10:18:04.974Z,101209.63
2023-03-19T10:20:17.210Z,101196.34
2023-03-19T10:22:28.590Z,101195.38
2023-03-19T10:24:37.327Z,101195.16
2023-03-19T10:26:41.215Z,101213.09
2023-03-19T10:28:47.919Z,101218.91
2023-03-19T10:30:58.283Z,101218.75
2023-03-19T10:33:14.412Z,101201.06
2023-03-19T10:35:21.695Z,101195.03
2023-03-19T10:37:29.533Z,101200.50
2023-03-19T10:39:35.624Z,101201.50
2023-03-19T10:41:48.104Z,101212.75
2023-03-19T10:43:56.214Z,101201.50
2023-03-19T10:46:00.212Z,101197.22
2023-03-19T10:48:05.652Z,101192.78
2023-03-19T10:50:16.722Z,101191.78
2023-03-19T10:52:25.763Z,101205.63
2023-03-19T10:54:32.129Z,101208.34
2023-03-19T10:56:36.395Z,101216.41
2023-03-19T10:58:40.610Z,101215.81
2023-03-19T11:00:48.206Z,101212.41
2023-03-19T11:02:54.077Z,101219.66
2023-03-19T11:05:10.398Z,101218.84
2023-03-19T11:07:16.684Z,101209.38
2023-03-19T11:09:27.400Z,101208.53
2023-03-19T11:11:38.279Z,101205.03
2023-03-19T11:13:42.105Z,101216.22
2023-03-19T11:15:49.522Z,101205.56
2023-03-19T11:17:59.160Z,101211.38
2023-03-19T11:20:20.893Z,101200.50
2023-03-19T11:22:27.478Z,101200.22
2023-03-19T11:24:34.788Z,101203.72
2023-03-19T11:26:39.759Z,101208.69
2023-03-19T11:28:44.926Z,101207.03
2023-03-19T11:30:57.419Z,101200.38
2023-03-19T11:33:27.279Z,101188.25
2023-03-19T11:35:34.966Z,101175.94
2023-03-19T11:37:56.250Z,101176.63
2023-03-19T11:40:10.673Z,101174.41
2023-03-19T11:42:57.190Z,101168.72
2023-03-19T11:45:16.423Z,101166.41
2023-03-19T11:47:32.655Z,101159.91
2023-03-19T11:49:58.217Z,101162.97
2023-03-19T11:52:10.252Z,101156.22
2023-03-19T11:54:24.200Z,101158.69
2023-03-19T11:56:38.012Z,101167.03
2023-03-19T11:59:19.589Z,101164.81
2023-03-19T12:01:39.514Z,101152.25
2023-03-19T12:04:04.144Z,101149.66
2023-03-19T12:06:19.132Z,101145.88
2023-03-19T12:08:36.251Z,101146.06
2023-03-19T12:11:04.953Z,101140.78
2023-03-19T12:13:21.849Z,101138.13
2023-03-19T12:15:31.659Z,101132.06
2023-03-19T12:17:53.379Z,101138.59
2023-03-19T12:20:12.572Z,101125.88
2023-03-19T12:22:26.871Z,101130.34
2023-03-19T12:24:45.618Z,101139.56
2023-03-19T12:26:58.543Z,101138.91
2023-03-19T12:29:08.031Z,101135.47
2023-03-19T12:31:31.279Z,101136.25
2023-03-19T12:33:44.804Z,101138.91
2023-03-19T12:35:51.856Z,101140.63
2023-03-19T12:38:01.185Z,101141.56
2023-03-19T12:40:15.868Z,101138.56
2023-03-19T12:42:24.619Z,101135.50
2023-03-19T12:44:34.460Z,101144.72
2023-03-19T12:46:45.531Z,101136.34
2023-03-19T12:48:54.626Z,101137.63
2023-03-19T12:51:05.838Z,101133.44
2023-03-19T12:53:12.879Z,101130.44
2023-03-19T12:55:22.230Z,101131.38
2023-03-19T12:57:36.356Z,101134.28
2023-03-19T12:59:48.566Z,101130.00
2023-03-19T13:02:01.615Z,101121.72
2023-03-19T13:04:10.598Z,101118.50
2023-03-19T13:06:21.539Z,101119.28
2023-03-19T13:08:33.048Z,101128.16
2023-03-19T13:10:37.168Z,101119.94
2023-03-19T13:12:41.439Z,101124.56
2023-03-19T13:14:54.186Z,101121.16
2023-03-19T13:17:04.540Z,101127.31
2023-03-19T13:19:18.489Z,101128.25
2023-03-19T13:21:25.394Z,101125.41
2023-03-19T13:23:34.418Z,101118.41
2023-03-19T13:25:41.490Z,101124.41
2023-03-19T13:27:54.373Z,101110.16
2023-03-19T13:30:09.487Z,101113.41
2023-03-19T13:32:27.382Z,101107.50
2023-03-19T13:34:35.915Z,101102.63
2023-03-19T13:36:40.772Z,101094.44
2023-03-19T13:38:48.507Z,101094.44
2023-03-19T13:40:53.814Z,101097.06
2023-03-19T13:42:58.262Z,101098.19
2023-03-19T13:45:04.786Z,101096.84
2023-03-19T13:47:44.821Z,101106.22
2023-03-19T13:52:50.343Z,101091.13
2023-03-19T13:54:57.177Z,101094.03
2023-03-19T13:57:36.884Z,101082.16
2023-03-19T13:59:44.031Z,101085.22
2023-03-19T14:01:47.749Z,101082.31
2023-03-19T14:03:58.761Z,101081.03
2023-03-19T14:06:03.167Z,101080.31
2023-03-19T14:08:18.961Z,101075.22
2023-03-19T14:10:28.787Z,101079.78
2023-03-19T14:12:35.672Z,101070.19
2023-03-19T14:14:43.479Z,101066.66
2023-03-19T14:16:48.008Z,101074.59
2023-03-19T14:18:52.005Z,101064.94
2023-03-19T14:21:00.773Z,101068.69
2023-03-19T14:23:23.347Z,101067.94
2023-03-19T14:25:49.762Z,101061.88
2023-03-19T14:27:56.972Z,101055.66
2023-03-19T14:30:09.617Z,101059.22
2023-03-19T14:32:19.113Z,101058.13
2023-03-19T14:34:28.001Z,101052.53
2023-03-19T14:36:33.186Z,101054.06
2023-03-19T14:38:42.665Z,101058.50
2023-03-19T14:40:51.950Z,101062.25
2023-03-19T14:43:04.432Z,101053.00
2023-03-19T14:45:28.416Z,101039.19
2023-03-19T14:47:54.741Z,101027.06
2023-03-19T14:50:47.909Z,101034.25
2023-03-19T14:53:00.187Z,101034.41
2023-03-19T14:55:11.577Z,101022.50
2023-03-19T14:57:19.691Z,101025.41
2023-03-19T14:59:23.348Z,101014.91
2023-03-19T15:01:28.492Z,101012.34
2023-03-19T15:03:34.520Z,101004.66
2023-03-19T15:05:38.454Z,101013.69
2023-03-19T15:07:46.133Z,101007.69
2023-03-19T15:09:55.272Z,100999.00
2023-03-19T15:12:34.444Z,100987.00
2023-03-19T15:14:55.556Z,100985.53
2023-03-19T15:17:07.791Z,100978.91
2023-03-19T15:19:12.677Z,100974.06
2023-03-19T15:21:17.955Z,100981.19
2023-03-19T15:23:27.301Z,100977.94
2023-03-19T15:25:32.294Z,100985.00
2023-03-19T15:27:38.004Z,100978.94
2023-03-19T15:29:41.575Z,100977.16
2023-03-19T15:31:52.792Z,100978.09
2023-03-19T15:34:19.671Z,100972.19
2023-03-19T15:36:27.410Z,100978.88
2023-03-19T15:38:37.105Z,100978.63
2023-03-19T15:40:42.861Z,100976.47
2023-03-19T15:42:49.415Z,100976.84
2023-03-19T15:44:57.033Z,100970.19
2023-03-19T15:47:03.401Z,100973.75
2023-03-19T15:49:12.361Z,100964.34
2023-03-19T15:51:20.965Z,100961.06
2023-03-19T15:53:28.156Z,100966.50
2023-03-19T15:55:32.066Z,100961.34
2023-03-19T15:57:37.416Z,100952.63
2023-03-19T15:59:43.504Z,100958.81
2023-03-19T16:01:46.926Z,100945.00
2023-03-19T16:03:56.585Z,100942.75
2023-03-19T16:06:04.547Z,100939.53
2023-03-19T16:08:18.669Z,100943.09
2023-03-19T16:10:35.449Z,100934.34
2023-03-19T16:12:42.577Z,100944.75
2023-03-19T16:14:47.545Z,100939.53
2023-03-19T16:16:52.103Z,100933.47
2023-03-19T16:18:57.257Z,100925.72
2023-03-19T16:21:07.687Z,100926.66
2023-03-19T16:23:17.724Z,100930.25
2023-03-19T16:25:22.362Z,100917.97
2023-03-19T16:27:35.088Z,100917.13
2023-03-19T16:29:41.892Z,100918.97
2023-03-19T16:31:52.056Z,100920.84
2023-03-19T16:33:57.275Z,100918.25
2023-03-19T16:36:01.042Z,100919.81
2023-03-19T16:38:13.954Z,100917.06
2023-03-19T16:40:43.722Z,100904.66
2023-03-19T16:42:49.845Z,100894.44
2023-03-19T16:44:54.303Z,100888.50
2023-03-19T16:46:59.571Z,100893.06
2023-03-19T16:49:03.318Z,100878.56
2023-03-19T16:51:11.996Z,100870.94
2023-03-19T16:53:24.048Z,100875.59
2023-03-19T16:55:30.147Z,100882.00
2023-03-19T16:57:34.058Z,100877.59
2023-03-19T16:59:37.938Z,100880.88
2023-03-19T17:01:41.633Z,100876.22
2023-03-19T17:03:48.110Z,100872.22
2023-03-19T17:05:51.927Z,100887.72
2023-03-19T17:07:56.572Z,100872.63
2023-03-19T17:10:00.317Z,100876.91
2023-03-19T17:12:06.364Z,100852.03
2023-03-19T17:14:16.684Z,100847.75
2023-03-19T17:16:21.474Z,100858.28
2023-03-19T17:18:26.790Z,100854.91
2023-03-19T17:20:47.703Z,100858.94
2023-03-19T17:22:57.612Z,100850.72
2023-03-19T17:25:01.282Z,100847.47
2023-03-19T17:27:05.781Z,100863.41
2023-03-19T17:29:12.261Z,100855.38
2023-03-19T17:31:27.885Z,100850.72
2023-03-19T17:33:32.089Z,100829.72
2023-03-19T17:35:37.317Z,100826.59
2023-03-19T17:37:41.535Z,100820.50
2023-03-19T17:39:46.072Z,100829.94
2023-03-19T17:41:49.988Z,100807.00
2023-03-19T17:43:53.728Z,100809.56
2023-03-19T17:45:57.362Z,100807.00
2023-03-19T17:48:01.098Z,100811.50
2023-03-19T17:50:06.736Z,100809.25
2023-03-19T17:52:16.088Z,100811.19
2023-03-19T17:54:21.833Z,100811.97
2023-03-19T17:56:27.505Z,100804.06
2023-03-19T17:58:31.383Z,100797.69
2023-03-19T18:00:35.281Z,100791.25
2023-03-19T18:02:41.303Z,100784.81
2023-03-19T18:04:45.069Z,100780.34
2023-03-19T18:06:52.060Z,100787.34
2023-03-19T18:08:57.503Z,100775.88
2023-03-19T18:11:02.066Z,100773.06
2023-03-19T18:13:07.420Z,100774.69
2023-03-19T18:15:13.017Z,100765.78
2023-03-19T18:17:18.464Z,100767.63
2023-03-19T18:19:30.401Z,100768.34
2023-03-19T18:21:35.578Z,100770.72
2023-03-19T18:23:39.514Z,100774.97
2023-03-19T18:25:46.089Z,100768.63
2023-03-19T18:27:51.461Z,100777.22
2023-03-19T18:29:56.123Z,100778.78
2023-03-19T18:32:04.712Z,100776.91
2023-03-19T18:34:12.509Z,100782.00
2023-03-19T18:36:21.391Z,100774.72
2023-03-19T18:38:29.672Z,100787.13
2023-03-19T18:40:35.216Z,100776.59
2023-03-19T18:42:41.149Z,100768.50
2023-03-19T18:44:46.009Z,100763.16
2023-03-19T18:46:50.724Z,100763.16
2023-03-19T18:48:58.839Z,100762.22
2023-03-19T18:51:03.151Z,100756.88
2023-03-19T18:53:08.471Z,100758.41
2023-03-19T18:55:13.826Z,100759.25
2023-03-19T18:57:18.611Z,100754.66
2023-03-19T18:59:30.599Z,100753.47
2023-03-19T19:01:35.123Z,100742.63
2023-03-19T19:03:39.316Z,100742.25
2023-03-19T19:05:43.900Z,100748.91
2023-03-19T19:07:48.328Z,100747.75
2023-03-19T19:09:53.617Z,100739.47
2023-03-19T19:12:01.061Z,100738.19
2023-03-19T19:14:06.045Z,100734.28
2023-03-19T19:16:19.819Z,100730.34
2023-03-19T19:18:26.162Z,100729.06
2023-03-19T19:20:31.554Z,100733.22
2023-03-19T19:22:35.832Z,100728.53
2023-03-19T19:24:40.535Z,100725.56
2023-03-19T19:26:46.541Z,100723.50
2023-03-19T19:28:52.142Z,100729.28
2023-03-19T19:30:57.783Z,100728.06
2023-03-19T19:33:04.899Z,100726.03
2023-03-19T19:35:17.318Z,100709.16
2023-03-19T19:37:23.672Z,100716.81
2023-03-19T19:39:28.810Z,100714.94
2023-03-19T19:41:34.112Z,100720.03
2023-03-19T19:43:42.734Z,100719.84
2023-03-19T19:45:48.729Z,100714.41
2023-03-19T19:47:54.013Z,100704.66
2023-03-19T19:49:59.579Z,100708.09
2023-03-19T19:52:03.518Z,100706.09
2023-03-19T19:54:07.397Z,100698.84
2023-03-19T19:56:16.884Z,100704.88
2023-03-19T19:58:23.700Z,100701.19
2023-03-19T20:00:30.217Z,100703.66
2023-03-19T20:02:34.962Z,100695.66
2023-03-19T20:04:39.261Z,100702.53
2023-03-19T20:06:44.607Z,100699.81
2023-03-19T20:08:49.800Z,100707.44
2023-03-19T20:10:54.149Z,100705.47
2023-03-19T20:13:00.159Z,100696.50
2023-03-19T20:15:04.622Z,100703.31
2023-03-19T20:17:11.132Z,100694.31
2023-03-19T20:19:20.897Z,100702.09
2023-03-19T20:21:25.265Z,100699.34
2023-03-19T20:23:31.453Z,100696.59
2023-03-19T20:25:35.474Z,100691.97
2023-03-19T20:27:39.794Z,100697.91
2023-03-19T20:29:43.542Z,100695.16
2023-03-19T20:31:48.181Z,100696.88
2023-03-19T20:33:52.421Z,100691.38
2023-03-19T20:35:56.507Z,100695.75
2023-03-19T20:38:02.663Z,100683.28
2023-03-19T20:40:08.995Z,100686.66
2023-03-19T20:42:16.396Z,100683.09
2023-03-19T20:44:26.274Z,100689.97
2023-03-19T20:46:32.592Z,100692.63
2023-03-19T20:48:36.672Z,100682.78
2023-03-19T20:50:40.570Z,100689.78
2023-03-19T20:52:44.754Z,100680.03
2023-03-19T20:54:48.537Z,100683.56
2023-03-19T20:56:53.781Z,100687.91
2023-03-19T20:58:57.668Z,100679.88
2023-03-19T21:01:01.635Z,100681.53
2023-03-19T21:03:05.603Z,100687.59
2023-03-19T21:05:13.352Z,100676.91
2023-03-19T21:07:29.077Z,100682.97
2023-03-19T21:09:32.732Z,100682.00
2023-03-19T21:11:40.852Z,100678.41
2023-03-19T21:13:46.511Z,100672.19
2023-03-19T21:15:51.479Z,100662.44
2023-03-19T21:17:55.556Z,100665.09
2023-03-19T21:19:59.670Z,100663.31
2023-03-19T21:22:07.687Z,100668.50
2023-03-19T21:24:16.393Z,100664.91
2023-03-19T21:26:22.773Z,100675.41
2023-03-19T21:28:30.700Z,100659.41
2023-03-19T21:30:39.404Z,100666.41
2023-03-19T21:32:43.014Z,100662.81
2023-03-19T21:34:49.026Z,100666.22
2023-03-19T21:36:53.504Z,100669.59
2023-03-19T21:38:57.999Z,100675.88
2023-03-19T21:41:05.331Z,100669.59
2023-03-19T21:43:09.134Z,100662.53
2023-03-19T21:45:20.845Z,100673.00
2023-03-19T21:47:26.228Z,100669.44
2023-03-19T21:49:30.533Z,100671.09
2023-03-19T21:51:34.277Z,100662.22
2023-03-19T21:53:37.810Z,100669.22
2023-03-19T21:55:41.739Z,100673.63
2023-03-19T21:57:46.329Z,100661.28
2023-03-19T21:59:50.166Z,100669.22
2023-03-19T22:01:54.432Z,100659.38
2023-03-19T22:04:00.429Z,100659.47
2023-03-19T22:06:04.328Z,100662.88
2023-03-19T22:08:09.321Z,100670.72
2023-03-19T22:10:13.825Z,100658.22
2023-03-19T22:12:27.724Z,100662.56
2023-03-19T22:14:32.426Z,100655.47
2023-03-19T22:16:36.549Z,100656.34
2023-03-19T22:18:41.063Z,100649.13
2023-03-19T22:20:47.657Z,100642.06
2023-03-19T22:22:51.883Z,100648.94
2023-03-19T22:24:59.835Z,100651.50
2023-03-19T22:27:04.267Z,100648.75
2023-03-19T22:29:13.311Z,100645.16
2023-03-19T22:31:18.110Z,100646.81
2023-03-19T22:33:24.971Z,100653.00
2023-03-19T22:35:31.204Z,100650.22
2023-03-19T22:37:37.111Z,100656.38
2023-03-19T22:39:41.618Z,100657.25
2023-03-19T22:41:48.116Z,100653.63
2023-03-19T22:43:52.534Z,100651.94
2023-03-19T22:46:00.215Z,100653.63
2023-03-19T22:48:04.589Z,100648.31
2023-03-19T22:50:18.037Z,100653.63
2023-03-19T22:52:22.830Z,100660.63
2023-03-19T22:54:28.370Z,100656.19
2023-03-19T22:56:33.369Z,100653.53
2023-03-19T22:58:37.380Z,100657.97
2023-03-19T23:00:41.742Z,100664.03
2023-03-19T23:02:46.878Z,100658.72
2023-03-19T23:04:50.495Z,100661.50
2023-03-19T23:06:57.490Z,100656.19
2023-03-19T23:09:01.346Z,100662.31
2023-03-19T23:11:08.115Z,100654.47
2023-03-19T23:13:14.607Z,100651.94
2023-03-19T23:15:18.838Z,100659.00
2023-03-19T23:17:24.067Z,100651.94
2023-03-19T23:19:31.401Z,100650.22
2023-03-19T23:21:35.670Z,100653.81
2023-03-19T23:23:40.293Z,100647.59
2023-03-19T23:25:45.281Z,100652.03
2023-03-19T23:27:51.897Z,100652.88
2023-03-19T23:29:57.125Z,100652.03
2023-03-19T23:32:01.983Z,100652.88
2023-03-19T23:34:06.072Z,100649.28
2023-03-19T23:36:11.919Z,100653.63
2023-03-19T23:38:17.567Z,100656.19
2023-03-19T23:40:21.681Z,100649.09
2023-03-19T23:42:29.798Z,100651.72
2023-03-19T23:44:35.323Z,100653.44
2023-03-19T23:46:39.437Z,100656.91
2023-03-19T23:48:43.478Z,100649.81
2023-03-19T23:50:48.469Z,100654.28
2023-03-19T23:52:51.084Z,100653.22
2023-03-19T23:54:55.099Z,100654.06
2023-03-19T23:56:59.937Z,100663.81
2023-03-19T23:59:03.682Z,100658.53
